sensor_id;sensor_type;location;lat;lon;timestamp;pressure;altitude;pressure_sealevel;temperature;humidity
23281;BME280;11809;56.390;-3.266;2022-09-13T00:02:17;100646.59;;;18.54;66.44
23281;BME280;11809;56.390;-3.266;2022-09-13T00:04:44;100652.88;;;18.53;66.57
23281;BME280;11809;56.390;-3.266;2022-09-13T00:07:11;100659.16;;;18.52;66.61
23281;BME280;11809;56.390;-3.266;2022-09-13T00:09:38;100653.84;;;18.52;66.48
23281;BME280;11809;56.390;-3.266;2022-09-13T00:12:05;100651.28;;;18.51;66.51
23281;BME280;11809;56.390;-3.266;2022-09-13T00:14:32;100655.75;;;18.50;66.46
23281;BME280;11809;56.390;-3.266;2022-09-13T00:16:59;100659.41;;;18.49;66.63
23281;BME280;11809;56.390;-3.266;2022-09-13T00:19:26;100650.66;;;18.47;66.69
23281;BME280;11809;56.390;-3.266;2022-09-13T00:21:53;100652.47;;;18.47;66.77
23281;BME280;11809;56.390;-3.266;2022-09-13T00:24:19;100650.66;;;18.47;66.65
23281;BME280;11809;56.390;-3.266;2022-09-13T00:26:46;100657.78;;;18.47;66.62
23281;BME280;11809;56.390;-3.266;2022-09-13T00:29:13;100651.69;;;18.45;66.65
23281;BME280;11809;56.390;-3.266;2022-09-13T00:31:40;100647.34;;;18.44;66.87
23281;BME280;11809;56.390;-3.266;2022-09-13T00:34:07;100650.84;;;18.44;66.53
23281;BME280;11809;56.390;-3.266;2022-09-13T00:36:34;100653.63;;;18.43;66.70
23281;BME280;11809;56.390;-3.266;2022-09-13T00:39:01;100658.94;;;18.43;66.72
23281;BME280;11809;56.390;-3.266;2022-09-13T00:41:27;100665.13;;;18.43;66.63
23281;BME280;11809;56.390;-3.266;2022-09-13T00:43:57;100656.41;;;18.41;66.55
23281;BME280;11809;56.390;-3.266;2022-09-13T00:46:41;100651.09;;;18.41;66.33
23281;BME280;11809;56.390;-3.266;2022-09-13T00:49:35;100649.50;;;18.39;66.70
23281;BME280;11809;56.390;-3.266;2022-09-13T00:52:07;100648.53;;;18.40;66.69
23281;BME280;11809;56.390;-3.266;2022-09-13T00:54:44;100647.66;;;18.39;66.75
23281;BME280;11809;56.390;-3.266;2022-09-13T00:57:15;100647.66;;;18.39;66.62
23281;BME280;11809;56.390;-3.266;2022-09-13T01:00:09;100640.66;;;18.38;66.46
23281;BME280;11809;56.390;-3.266;2022-09-13T01:02:44;100648.66;;;18.38;66.84
23281;BME280;11809;56.390;-3.266;2022-09-13T01:05:14;100650.44;;;18.38;66.57
23281;BME280;11809;56.390;-3.266;2022-09-13T01:07:42;100650.44;;;18.38;66.67
23281;BME280;11809;56.390;-3.266;2022-09-13T01:10:10;100652.25;;;18.37;66.64
23281;BME280;11809;56.390;-3.266;2022-09-13T01:15:16;100648.88;;;18.35;66.63
23281;BME280;11809;56.390;-3.266;2022-09-13T01:17:43;100642.81;;;18.33;66.79
23281;BME280;11809;56.390;-3.266;2022-09-13T01:20:11;100648.00;;;18.35;66.67
23281;BME280;11809;56.390;-3.266;2022-09-13T01:30:59;100643.88;;;18.31;66.80
23281;BME280;11809;56.390;-3.266;2022-09-13T01:33:47;100636.00;;;18.29;66.83
23281;BME280;11809;56.390;-3.266;2022-09-13T01:36:42;100635.25;;;18.27;67.02
23281;BME280;11809;56.390;-3.266;2022-09-13T01:45:23;100650.28;;;18.28;66.92
23281;BME280;11809;56.390;-3.266;2022-09-13T01:48:14;100646.75;;;18.28;66.69
23281;BME280;11809;56.390;-3.266;2022-09-13T01:56:55;100657.63;;;18.25;66.97
23281;BME280;11809;56.390;-3.266;2022-09-13T01:59:47;100651.31;;;18.26;66.83
23281;BME280;11809;56.390;-3.266;2022-09-13T02:08:30;100656.25;;;18.19;67.02
23281;BME280;11809;56.390;-3.266;2022-09-13T02:11:11;100655.50;;;18.17;67.07
23281;BME280;11809;56.390;-3.266;2022-09-13T02:13:53;100653.06;;;18.14;67.07
23281;BME280;11809;56.390;-3.266;2022-09-13T02:16:33;100658.38;;;18.14;67.18
23281;BME280;11809;56.390;-3.266;2022-09-13T02:19:09;100662.97;;;18.12;67.30
23281;BME280;11809;56.390;-3.266;2022-09-13T02:21:41;100658.38;;;18.14;67.32
23281;BME280;11809;56.390;-3.266;2022-09-13T02:24:11;100664.56;;;18.14;67.14
23281;BME280;11809;56.390;-3.266;2022-09-13T02:26:40;100665.38;;;18.15;67.07
23281;BME280;11809;56.390;-3.266;2022-09-13T02:29:11;100665.38;;;18.15;67.02
23281;BME280;11809;56.390;-3.266;2022-09-13T02:31:44;100670.72;;;18.15;66.67
23281;BME280;11809;56.390;-3.266;2022-09-13T02:34:18;100670.81;;;18.13;66.79
23281;BME280;11809;56.390;-3.266;2022-09-13T02:36:48;100667.31;;;18.13;67.00
23281;BME280;11809;56.390;-3.266;2022-09-13T02:39:19;100672.63;;;18.13;66.97
23281;BME280;11809;56.390;-3.266;2022-09-13T02:44:31;100674.56;;;18.11;66.94
23281;BME280;11809;56.390;-3.266;2022-09-13T02:52:18;100671.16;;;18.09;67.07
23281;BME280;11809;56.390;-3.266;2022-09-13T03:00:07;100674.03;;;18.06;66.93
23281;BME280;11809;56.390;-3.266;2022-09-13T03:02:36;100671.38;;;18.06;66.95
23281;BME280;11809;56.390;-3.266;2022-09-13T03:05:05;100664.34;;;18.05;67.07
23281;BME280;11809;56.390;-3.266;2022-09-13T03:07:32;100674.97;;;18.05;66.97
23281;BME280;11809;56.390;-3.266;2022-09-13T03:10:10;100672.31;;;18.05;67.10
23281;BME280;11809;56.390;-3.266;2022-09-13T03:13:17;100671.59;;;18.03;67.06
23281;BME280;11809;56.390;-3.266;2022-09-13T03:16:22;100661.06;;;18.01;67.18
23281;BME280;11809;56.390;-3.266;2022-09-13T03:18:57;100660.94;;;18.03;67.01
23281;BME280;11809;56.390;-3.266;2022-09-13T03:24:08;100658.63;;;17.98;67.23
23281;BME280;11809;56.390;-3.266;2022-09-13T03:27:23;100679.03;;;17.98;67.19
23281;BME280;11809;56.390;-3.266;2022-09-13T03:30:24;100684.38;;;17.98;67.16
23281;BME280;11809;56.390;-3.266;2022-09-13T03:32:57;100683.50;;;17.97;67.01
23281;BME280;11809;56.390;-3.266;2022-09-13T03:38:20;100690.75;;;17.95;67.09
23281;BME280;11809;56.390;-3.266;2022-09-13T03:40:55;100696.91;;;17.96;67.08
23281;BME280;11809;56.390;-3.266;2022-09-13T03:43:27;100692.44;;;17.96;67.16
23281;BME280;11809;56.390;-3.266;2022-09-13T03:48:49;100691.06;;;17.91;67.22
23281;BME280;11809;56.390;-3.266;2022-09-13T03:51:17;100693.72;;;17.91;67.01
23281;BME280;11809;56.390;-3.266;2022-09-13T03:53:52;100682.44;;;17.87;67.37
23281;BME280;11809;56.390;-3.266;2022-09-13T03:56:22;100688.50;;;17.89;67.32
23281;BME280;11809;56.390;-3.266;2022-09-13T03:58:49;100691.28;;;17.88;67.25
23281;BME280;11809;56.390;-3.266;2022-09-13T04:01:19;100703.72;;;17.87;67.28
23281;BME280;11809;56.390;-3.266;2022-09-13T04:03:47;100703.81;;;17.86;67.22
23281;BME280;11809;56.390;-3.266;2022-09-13T04:06:19;100697.53;;;17.87;67.21
23281;BME280;11809;56.390;-3.266;2022-09-13T04:08:46;100692.22;;;17.87;67.13
23281;BME280;11809;56.390;-3.266;2022-09-13T04:11:13;100695.84;;;17.86;67.15
23281;BME280;11809;56.390;-3.266;2022-09-13T04:13:40;100699.47;;;17.85;67.27
23281;BME280;11809;56.390;-3.266;2022-09-13T04:16:07;100698.63;;;17.84;67.22
23281;BME280;11809;56.390;-3.266;2022-09-13T04:18:35;100698.63;;;17.84;67.16
23281;BME280;11809;56.390;-3.266;2022-09-13T04:21:02;100696.91;;;17.83;67.01
23281;BME280;11809;56.390;-3.266;2022-09-13T04:23:30;100695.22;;;17.82;66.79
23281;BME280;11809;56.390;-3.266;2022-09-13T04:26:04;100689.16;;;17.80;66.92
23281;BME280;11809;56.390;-3.266;2022-09-13T04:28:31;100693.63;;;17.80;67.31
23281;BME280;11809;56.390;-3.266;2022-09-13T04:30:58;100691.91;;;17.79;67.18
23281;BME280;11809;56.390;-3.266;2022-09-13T04:33:25;100699.03;;;17.78;67.08
23281;BME280;11809;56.390;-3.266;2022-09-13T04:35:58;100697.34;;;17.77;67.12
23281;BME280;11809;56.390;-3.266;2022-09-13T04:38:26;100703.50;;;17.78;67.09
23281;BME280;11809;56.390;-3.266;2022-09-13T04:40:54;100693.09;;;17.75;67.08
23281;BME280;11809;56.390;-3.266;2022-09-13T04:43:22;100702.00;;;17.74;67.15
23281;BME280;11809;56.390;-3.266;2022-09-13T04:45:49;100700.22;;;17.74;67.06
23281;BME280;11809;56.390;-3.266;2022-09-13T04:48:16;100702.88;;;17.74;67.00
23281;BME280;11809;56.390;-3.266;2022-09-13T04:50:43;100708.19;;;17.74;67.19
23281;BME280;11809;56.390;-3.266;2022-09-13T04:53:10;100707.31;;;17.74;67.14
23281;BME280;11809;56.390;-3.266;2022-09-13T04:55:37;100705.63;;;17.73;67.16
23281;BME280;11809;56.390;-3.266;2022-09-13T04:58:04;100716.38;;;17.71;67.19
23281;BME280;11809;56.390;-3.266;2022-09-13T05:00:32;100720.81;;;17.71;66.89
23281;BME280;11809;56.390;-3.266;2022-09-13T05:02:59;100719.88;;;17.72;67.00
23281;BME280;11809;56.390;-3.266;2022-09-13T05:05:26;100723.47;;;17.71;66.94
23281;BME280;11809;56.390;-3.266;2022-09-13T05:07:54;100727.94;;;17.70;66.92
23281;BME280;11809;56.390;-3.266;2022-09-13T05:10:21;100723.47;;;17.71;67.09
23281;BME280;11809;56.390;-3.266;2022-09-13T05:12:48;100717.31;;;17.70;66.93
23281;BME280;11809;56.390;-3.266;2022-09-13T05:15:15;100729.66;;;17.71;66.98
23281;BME280;11809;56.390;-3.266;2022-09-13T05:17:42;100728.91;;;17.69;67.34
23281;BME280;11809;56.390;-3.266;2022-09-13T05:20:09;100730.72;;;17.69;67.17
23281;BME280;11809;56.390;-3.266;2022-09-13T05:22:36;100721.16;;;17.66;67.37
23281;BME280;11809;56.390;-3.266;2022-09-13T05:25:04;100729.84;;;17.68;67.52
23281;BME280;11809;56.390;-3.266;2022-09-13T05:27:31;100730.72;;;17.69;67.30
23281;BME280;11809;56.390;-3.266;2022-09-13T05:29:57;100722.63;;;17.70;67.65
23281;BME280;11809;56.390;-3.266;2022-09-13T05:32:24;100726.88;;;17.73;67.28
23281;BME280;11809;56.390;-3.266;2022-09-13T05:34:51;100728.59;;;17.74;67.61
23281;BME280;11809;56.390;-3.266;2022-09-13T05:37:18;100726.66;;;17.76;67.60
23281;BME280;11809;56.390;-3.266;2022-09-13T05:39:45;100739.97;;;17.76;67.15
23281;BME280;11809;56.390;-3.266;2022-09-13T05:42:32;100740.69;;;17.78;66.98
23281;BME280;11809;56.390;-3.266;2022-09-13T05:44:59;100734.44;;;17.79;67.32
23281;BME280;11809;56.390;-3.266;2022-09-13T05:47:25;100735.19;;;17.81;67.43
23281;BME280;11809;56.390;-3.266;2022-09-13T05:49:52;100737.63;;;17.84;67.15
23281;BME280;11809;56.390;-3.266;2022-09-13T05:52:39;100731.38;;;17.85;67.21
23281;BME280;11809;56.390;-3.266;2022-09-13T05:55:06;100727.75;;;17.86;67.46
23281;BME280;11809;56.390;-3.266;2022-09-13T05:57:35;100730.31;;;17.87;67.33
23281;BME280;11809;56.390;-3.266;2022-09-13T06:00:03;100723.19;;;17.88;67.47
23281;BME280;11809;56.390;-3.266;2022-09-13T06:02:30;100716.91;;;17.89;67.54
23281;BME280;11809;56.390;-3.266;2022-09-13T06:04:58;100712.44;;;17.89;67.42
23281;BME280;11809;56.390;-3.266;2022-09-13T06:07:25;100714.03;;;17.92;67.63
23281;BME280;11809;56.390;-3.266;2022-09-13T06:09:52;100705.19;;;17.91;67.45
23281;BME280;11809;56.390;-3.266;2022-09-13T06:12:19;100708.72;;;17.92;67.20
23281;BME280;11809;56.390;-3.266;2022-09-13T06:14:46;100710.50;;;17.91;67.02
23281;BME280;11809;56.390;-3.266;2022-09-13T06:17:13;100715.75;;;17.93;67.16
23281;BME280;11809;56.390;-3.266;2022-09-13T06:19:40;100713.09;;;17.93;67.14
23281;BME280;11809;56.390;-3.266;2022-09-13T06:22:07;100714.88;;;17.92;66.87
23281;BME280;11809;56.390;-3.266;2022-09-13T06:24:34;100722.00;;;17.92;66.73
23281;BME280;11809;56.390;-3.266;2022-09-13T06:27:03;100721.16;;;17.91;66.64
23281;BME280;11809;56.390;-3.266;2022-09-13T06:29:30;100724.66;;;17.92;67.16
23281;BME280;11809;56.390;-3.266;2022-09-13T06:31:57;100724.56;;;17.93;67.18
23281;BME280;11809;56.390;-3.266;2022-09-13T06:34:25;100721.91;;;17.93;66.93
23281;BME280;11809;56.390;-3.266;2022-09-13T06:36:56;100728.06;;;17.94;67.15
23281;BME280;11809;56.390;-3.266;2022-09-13T06:39:23;100729.66;;;17.71;62.83
23281;BME280;11809;56.390;-3.266;2022-09-13T06:41:50;100727.69;;;17.48;61.38
23281;BME280;11809;56.390;-3.266;2022-09-13T06:44:17;100732.75;;;17.38;60.98
23281;BME280;11809;56.390;-3.266;2022-09-13T06:46:44;100732.78;;;17.51;63.03
23281;BME280;11809;56.390;-3.266;2022-09-13T06:49:11;100731.31;;;17.60;64.00
23281;BME280;11809;56.390;-3.266;2022-09-13T06:51:38;100742.41;;;17.66;64.61
23281;BME280;11809;56.390;-3.266;2022-09-13T06:54:05;100744.00;;;17.69;64.76
23281;BME280;11809;56.390;-3.266;2022-09-13T06:56:35;100747.41;;;17.71;64.21
23281;BME280;11809;56.390;-3.266;2022-09-13T06:59:06;100743.81;;;17.72;64.82
23281;BME280;11809;56.390;-3.266;2022-09-13T07:01:41;100745.41;;;17.74;65.03
23281;BME280;11809;56.390;-3.266;2022-09-13T07:04:15;100751.25;;;17.67;62.96
23281;BME280;11809;56.390;-3.266;2022-09-13T07:06:44;100757.16;;;17.58;61.27
23281;BME280;11809;56.390;-3.266;2022-09-13T07:09:20;100755.50;;;17.42;60.39
23281;BME280;11809;56.390;-3.266;2022-09-13T07:11:49;100754.25;;;17.48;61.74
23281;BME280;11809;56.390;-3.266;2022-09-13T07:14:22;100754.72;;;17.54;62.85
23281;BME280;11809;56.390;-3.266;2022-09-13T07:16:49;100749.00;;;17.61;63.71
23281;BME280;11809;56.390;-3.266;2022-09-13T07:19:20;100758.44;;;17.65;64.22
23281;BME280;11809;56.390;-3.266;2022-09-13T07:21:48;100767.19;;;17.67;65.32
23281;BME280;11809;56.390;-3.266;2022-09-13T07:24:16;100762.63;;;17.69;65.87
23281;BME280;11809;56.390;-3.266;2022-09-13T07:26:45;100770.66;;;17.67;65.79
23281;BME280;11809;56.390;-3.266;2022-09-13T07:29:15;100770.66;;;17.67;65.98
23281;BME280;11809;56.390;-3.266;2022-09-13T07:31:46;100774.09;;;17.69;65.82
23281;BME280;11809;56.390;-3.266;2022-09-13T07:34:20;100781.97;;;17.71;65.92
23281;BME280;11809;56.390;-3.266;2022-09-13T07:36:47;100781.03;;;17.72;66.09
23281;BME280;11809;56.390;-3.266;2022-09-13T07:39:15;100784.53;;;17.72;65.95
23281;BME280;11809;56.390;-3.266;2022-09-13T07:41:48;100772.06;;;17.73;66.19
23281;BME280;11809;56.390;-3.266;2022-09-13T07:44:15;100773.78;;;17.74;66.30
23281;BME280;11809;56.390;-3.266;2022-09-13T07:46:42;100764.09;;;17.73;66.33
23281;BME280;11809;56.390;-3.266;2022-09-13T07:49:12;100762.09;;;17.76;66.32
23281;BME280;11809;56.390;-3.266;2022-09-13T07:51:41;100762.94;;;17.77;66.15
23281;BME280;11809;56.390;-3.266;2022-09-13T07:54:12;100767.19;;;17.79;66.08
23281;BME280;11809;56.390;-3.266;2022-09-13T07:56:39;100774.13;;;17.82;66.20
23281;BME280;11809;56.390;-3.266;2022-09-13T07:59:11;100775.81;;;17.83;66.16
23281;BME280;11809;56.390;-3.266;2022-09-13T08:01:44;100775.59;;;17.86;66.08
23281;BME280;11809;56.390;-3.266;2022-09-13T08:04:14;100775.50;;;17.87;66.13
23281;BME280;11809;56.390;-3.266;2022-09-13T08:06:44;100772.84;;;17.87;65.93
23281;BME280;11809;56.390;-3.266;2022-09-13T08:09:12;100775.38;;;17.89;66.14
23281;BME280;11809;56.390;-3.266;2022-09-13T08:11:42;100775.38;;;17.89;66.00
23281;BME280;11809;56.390;-3.266;2022-09-13T08:14:11;100768.38;;;17.88;66.25
23281;BME280;11809;56.390;-3.266;2022-09-13T08:16:39;100760.41;;;17.88;66.21
23281;BME280;11809;56.390;-3.266;2022-09-13T08:19:07;100760.41;;;17.88;66.33
23281;BME280;11809;56.390;-3.266;2022-09-13T08:21:37;100756.03;;;17.87;66.48
23281;BME280;11809;56.390;-3.266;2022-09-13T08:24:07;100770.94;;;17.89;66.63
23281;BME280;11809;56.390;-3.266;2022-09-13T08:26:35;100768.19;;;17.91;66.42
23281;BME280;11809;56.390;-3.266;2022-09-13T08:29:04;100768.91;;;17.93;66.52
23281;BME280;11809;56.390;-3.266;2022-09-13T08:31:33;100767.13;;;17.93;66.26
23281;BME280;11809;56.390;-3.266;2022-09-13T08:34:00;100759.97;;;17.94;66.31
23281;BME280;11809;56.390;-3.266;2022-09-13T08:36:28;100749.25;;;17.95;66.70
23281;BME280;11809;56.390;-3.266;2022-09-13T08:38:57;100742.13;;;17.96;66.22
23281;BME280;11809;56.390;-3.266;2022-09-13T08:46:44;100749.13;;;17.97;66.23
23281;BME280;11809;56.390;-3.266;2022-09-13T08:49:16;100745.59;;;17.96;66.15
23281;BME280;11809;56.390;-3.266;2022-09-13T08:51:47;100749.03;;;17.98;66.26
23281;BME280;11809;56.390;-3.266;2022-09-13T08:54:16;100759.56;;;18.00;66.34
23281;BME280;11809;56.390;-3.266;2022-09-13T09:07:08;100769.47;;;17.98;62.39
23281;BME280;11809;56.390;-3.266;2022-09-13T09:09:44;100783.69;;;17.97;61.76
23281;BME280;11809;56.390;-3.266;2022-09-13T09:12:26;100782.84;;;17.96;60.96
23281;BME280;11809;56.390;-3.266;2022-09-13T09:15:16;100780.09;;;17.98;60.62
23281;BME280;11809;56.390;-3.266;2022-09-13T09:17:59;100771.38;;;17.96;60.58
23281;BME280;11809;56.390;-3.266;2022-09-13T09:20:35;100767.53;;;18.00;60.49
23281;BME280;11809;56.390;-3.266;2022-09-13T09:23:29;100762.94;;;18.02;60.16
23281;BME280;11809;56.390;-3.266;2022-09-13T09:26:15;100767.31;;;18.03;60.16
23281;BME280;11809;56.390;-3.266;2022-09-13T09:28:46;100764.53;;;18.04;60.17
23281;BME280;11809;56.390;-3.266;2022-09-13T09:31:47;100763.72;;;18.04;60.06
23281;BME280;11809;56.390;-3.266;2022-09-13T09:34:36;100760.84;;;18.07;60.07
23281;BME280;11809;56.390;-3.266;2022-09-13T09:37:26;100759.88;;;18.08;60.34
23281;BME280;11809;56.390;-3.266;2022-09-13T09:39:57;100757.13;;;18.09;60.79
23281;BME280;11809;56.390;-3.266;2022-09-13T09:42:29;100757.75;;;18.13;61.28
23281;BME280;11809;56.390;-3.266;2022-09-13T09:45:19;100760.19;;;18.16;62.71
23281;BME280;11809;56.390;-3.266;2022-09-13T09:47:50;100762.84;;;18.16;63.23
23281;BME280;11809;56.390;-3.266;2022-09-13T09:50:32;100758.28;;;18.18;63.62
23281;BME280;11809;56.390;-3.266;2022-09-13T09:58:11;100761.38;;;18.25;64.14
23281;BME280;11809;56.390;-3.266;2022-09-13T10:00:54;100762.09;;;18.27;64.34
23281;BME280;11809;56.390;-3.266;2022-09-13T10:03:27;100762.03;;;18.28;64.24
23281;BME280;11809;56.390;-3.266;2022-09-13T10:06:11;100756.56;;;18.30;64.46
23281;BME280;11809;56.390;-3.266;2022-09-13T10:08:41;100747.53;;;18.32;64.62
23281;BME280;11809;56.390;-3.266;2022-09-13T10:11:10;100752.72;;;18.34;64.74
23281;BME280;11809;56.390;-3.266;2022-09-13T10:13:38;100749.13;;;18.35;64.71
23281;BME280;11809;56.390;-3.266;2022-09-13T10:16:28;100747.31;;;18.35;64.81
23281;BME280;11809;56.390;-3.266;2022-09-13T10:19:24;100742.72;;;18.37;64.99
23281;BME280;11809;56.390;-3.266;2022-09-13T10:22:07;100745.28;;;18.39;64.93
23281;BME280;11809;56.390;-3.266;2022-09-13T10:24:37;100747.84;;;18.40;64.93
23281;BME280;11809;56.390;-3.266;2022-09-13T10:27:25;100752.22;;;18.41;65.06
23281;BME280;11809;56.390;-3.266;2022-09-13T10:29:57;100754.88;;;18.41;65.17
23281;BME280;11809;56.390;-3.266;2022-09-13T10:32:29;100746.03;;;18.41;65.28
23281;BME280;11809;56.390;-3.266;2022-09-13T10:35:07;100753.16;;;18.40;65.25
23281;BME280;11809;56.390;-3.266;2022-09-13T10:37:41;100749.56;;;18.41;65.40
23281;BME280;11809;56.390;-3.266;2022-09-13T10:40:28;100744.97;;;18.43;65.43
23281;BME280;11809;56.390;-3.266;2022-09-13T10:42:59;100739.63;;;18.43;65.37
23281;BME280;11809;56.390;-3.266;2022-09-13T10:45:29;100734.31;;;18.43;65.55
23281;BME280;11809;56.390;-3.266;2022-09-13T10:48:10;100735.06;;;18.45;65.54
23281;BME280;11809;56.390;-3.266;2022-09-13T10:50:38;100734.09;;;18.46;65.54
23281;BME280;11809;56.390;-3.266;2022-09-13T10:53:30;100727.75;;;18.49;65.60
23281;BME280;11809;56.390;-3.266;2022-09-13T10:55:58;100735.50;;;18.52;65.60
23281;BME280;11809;56.390;-3.266;2022-09-13T10:58:25;100729.00;;;18.56;65.42
23281;BME280;11809;56.390;-3.266;2022-09-13T11:09:00;100728.91;;;18.57;64.55
23281;BME280;11809;56.390;-3.266;2022-09-13T11:12:05;100721.53;;;18.61;64.69
23281;BME280;11809;56.390;-3.266;2022-09-13T11:15:06;100727.69;;;18.61;64.59
23281;BME280;11809;56.390;-3.266;2022-09-13T11:36:37;100723.41;;;18.71;64.44
23281;BME280;11809;56.390;-3.266;2022-09-13T11:39:30;100708.28;;;18.72;64.32
23281;BME280;11809;56.390;-3.266;2022-09-13T11:52:35;100710.72;;;18.75;64.40
23281;BME280;11809;56.390;-3.266;2022-09-13T11:55:13;100712.31;;;18.77;64.16
23281;BME280;11809;56.390;-3.266;2022-09-13T11:57:47;100709.44;;;18.81;64.26
23281;BME280;11809;56.390;-3.266;2022-09-13T12:00:24;100637.66;;;18.43;64.37
23281;BME280;11809;56.390;-3.266;2022-09-13T12:06:00;100697.38;;;18.88;64.10
23281;BME280;11809;56.390;-3.266;2022-09-13T12:08:35;100690.09;;;18.90;64.04
23281;BME280;11809;56.390;-3.266;2022-09-13T12:11:26;100692.69;;;18.91;63.80
23281;BME280;11809;56.390;-3.266;2022-09-13T12:13:59;100692.53;;;18.93;63.97
23281;BME280;11809;56.390;-3.266;2022-09-13T12:16:37;100676.69;;;18.91;63.69
23281;BME280;11809;56.390;-3.266;2022-09-13T12:19:25;100681.81;;;18.94;63.09
23281;BME280;11809;56.390;-3.266;2022-09-13T12:21:55;100677.06;;;18.98;62.92
23281;BME280;11809;56.390;-3.266;2022-09-13T12:32:32;100681.44;;;18.99;62.40
23281;BME280;11809;56.390;-3.266;2022-09-13T13:01:52;100666.03;;;19.15;61.29
23281;BME280;11809;56.390;-3.266;2022-09-13T13:04:27;100666.75;;;19.17;61.22
23281;BME280;11809;56.390;-3.266;2022-09-13T13:07:06;100664.00;;;19.18;61.17
23281;BME280;11809;56.390;-3.266;2022-09-13T13:12:11;100647.16;;;19.18;61.07
23281;BME280;11809;56.390;-3.266;2022-09-13T13:14:50;100648.81;;;19.19;60.98
23281;BME280;11809;56.390;-3.266;2022-09-13T13:17:40;100644.25;;;19.21;61.37
23281;BME280;11809;56.390;-3.266;2022-09-13T13:21:01;100641.59;;;19.21;60.74
23281;BME280;11809;56.390;-3.266;2022-09-13T13:23:33;100638.56;;;19.25;60.49
23281;BME280;11809;56.390;-3.266;2022-09-13T13:46:53;100615.81;;;19.32;60.49
23281;BME280;11809;56.390;-3.266;2022-09-13T13:57:39;100608.56;;;19.34;60.28
23281;BME280;11809;56.390;-3.266;2022-09-13T14:00:19;100605.75;;;19.36;59.67
23281;BME280;11809;56.390;-3.266;2022-09-13T14:24:37;100588.19;;;19.33;59.07
23281;BME280;11809;56.390;-3.266;2022-09-13T14:27:04;100592.66;;;19.33;59.20
23281;BME280;11809;56.390;-3.266;2022-09-13T14:29:35;100585.66;;;19.32;59.12
23281;BME280;11809;56.390;-3.266;2022-09-13T14:32:06;100584.56;;;19.34;59.09
23281;BME280;11809;56.390;-3.266;2022-09-13T14:34:37;100583.72;;;19.34;58.89
23281;BME280;11809;56.390;-3.266;2022-09-13T14:37:14;100582.72;;;19.35;58.77
23281;BME280;11809;56.390;-3.266;2022-09-13T14:42:41;100575.50;;;19.37;58.34
23281;BME280;11809;56.390;-3.266;2022-09-13T14:45:13;100577.22;;;19.38;58.33
23281;BME280;11809;56.390;-3.266;2022-09-13T14:50:22;100579.88;;;19.38;57.97
23281;BME280;11809;56.390;-3.266;2022-09-13T14:53:01;100576.25;;;19.39;57.41
23281;BME280;11809;56.390;-3.266;2022-09-13T14:55:32;100578.06;;;19.39;58.53
23281;BME280;11809;56.390;-3.266;2022-09-13T14:58:05;100579.00;;;19.38;59.07
23281;BME280;11809;56.390;-3.266;2022-09-13T15:00:57;100578.16;;;19.37;58.73
23281;BME280;11809;56.390;-3.266;2022-09-13T15:03:26;100576.25;;;19.39;58.52
23281;BME280;11809;56.390;-3.266;2022-09-13T15:05:57;100570.91;;;19.39;58.02
23281;BME280;11809;56.390;-3.266;2022-09-13T15:11:03;100574.53;;;19.38;57.70
23281;BME280;11809;56.390;-3.266;2022-09-13T15:13:32;100574.63;;;19.36;58.29
23281;BME280;11809;56.390;-3.266;2022-09-13T15:15:59;100571.25;;;19.34;58.62
23281;BME280;11809;56.390;-3.266;2022-09-13T15:18:31;100578.25;;;19.35;57.74
23281;BME280;11809;56.390;-3.266;2022-09-13T15:21:03;100566.75;;;19.35;58.18
23281;BME280;11809;56.390;-3.266;2022-09-13T15:23:36;100573.78;;;19.36;58.26
23281;BME280;11809;56.390;-3.266;2022-09-13T15:26:11;100573.78;;;19.36;57.83
23281;BME280;11809;56.390;-3.266;2022-09-13T15:31:22;100572.22;;;19.33;58.80
23281;BME280;11809;56.390;-3.266;2022-09-13T15:36:39;100566.16;;;19.31;59.56
23281;BME280;11809;56.390;-3.266;2022-09-13T15:41:39;100572.44;;;19.30;59.94
23281;BME280;11809;56.390;-3.266;2022-09-13T15:44:08;100572.44;;;19.30;59.80
23281;BME280;11809;56.390;-3.266;2022-09-13T15:46:50;100565.53;;;19.28;60.29
23281;BME280;11809;56.390;-3.266;2022-09-13T15:49:20;100562.88;;;19.28;60.31
23281;BME280;11809;56.390;-3.266;2022-09-13T15:51:59;100563.81;;;19.27;60.38
23281;BME280;11809;56.390;-3.266;2022-09-13T15:54:32;100564.81;;;19.26;60.23
23281;BME280;11809;56.390;-3.266;2022-09-13T15:57:00;100564.59;;;19.29;59.50
23281;BME280;11809;56.390;-3.266;2022-09-13T15:59:27;100558.16;;;19.31;57.18
23281;BME280;11809;56.390;-3.266;2022-09-13T16:01:54;100565.16;;;19.32;57.47
23281;BME280;11809;56.390;-3.266;2022-09-13T16:04:22;100548.34;;;19.32;57.45
23281;BME280;11809;56.390;-3.266;2022-09-13T16:06:49;100551.97;;;19.31;58.06
23281;BME280;11809;56.390;-3.266;2022-09-13T16:11:45;100543.97;;;19.31;59.23
23281;BME280;11809;56.390;-3.266;2022-09-13T16:14:13;100540.59;;;19.29;59.03
23281;BME280;11809;56.390;-3.266;2022-09-13T16:16:41;100537.81;;;19.30;59.22
23281;BME280;11809;56.390;-3.266;2022-09-13T16:19:19;100530.91;;;19.28;59.14
23281;BME280;11809;56.390;-3.266;2022-09-13T16:21:47;100536.94;;;19.30;58.54
23281;BME280;11809;56.390;-3.266;2022-09-13T16:24:15;100546.41;;;19.34;57.71
23281;BME280;11809;56.390;-3.266;2022-09-13T16:26:42;100548.09;;;19.35;58.16
23281;BME280;11809;56.390;-3.266;2022-09-13T16:29:11;100541.09;;;19.34;58.09
23281;BME280;11809;56.390;-3.266;2022-09-13T16:31:38;100539.28;;;19.34;56.83
23281;BME280;11809;56.390;-3.266;2022-09-13T16:34:05;100542.75;;;19.35;56.60
23281;BME280;11809;56.390;-3.266;2022-09-13T16:36:32;100537.56;;;19.33;56.89
23281;BME280;11809;56.390;-3.266;2022-09-13T16:39:00;100534.91;;;19.33;57.53
23281;BME280;11809;56.390;-3.266;2022-09-13T16:41:27;100534.91;;;19.33;58.08
23281;BME280;11809;56.390;-3.266;2022-09-13T16:43:54;100533.09;;;19.34;58.60
23281;BME280;11809;56.390;-3.266;2022-09-13T16:46:21;100542.03;;;19.33;58.57
23281;BME280;11809;56.390;-3.266;2022-09-13T16:48:52;100543.97;;;19.31;57.39